sensor_id;sensor_type;location;lat;lon;timestamp;P1;durP1;ratioP1;P2;durP2;ratioP2
21239;SDS011;10778;48.962;9.018;2023-05-07T00:00:58;3.80;;;2.70;;
21239;SDS011;10778;48.962;9.018;2023-05-07T00:03:25;3.53;;;2.53;;
21239;SDS011;10778;48.962;9.018;2023-05-07T00:05:52;5.75;;;2.55;;
21239;SDS011;10778;48.962;9.018;2023-05-07T00:08:18;4.90;;;2.47;;
21239;SDS011;10778;48.962;9.018;2023-05-07T00:10:44;3.13;;;2.30;;
21239;SDS011;10778;48.962;9.018;2023-05-07T00:13:12;3.55;;;2.40;;
21239;SDS011;10778;48.962;9.018;2023-05-07T00:15:38;3.38;;;2.25;;
21239;SDS011;10778;48.962;9.018;2023-05-07T00:18:04;2.88;;;2.38;;
21239;SDS011;10778;48.962;9.018;2023-05-07T00:20:30;4.72;;;2.42;;
21239;SDS011;10778;48.962;9.018;2023-05-07T00:22:56;2.67;;;2.47;;
21239;SDS011;10778;48.962;9.018;2023-05-07T00:25:22;4.25;;;2.55;;
21239;SDS011;10778;48.962;9.018;2023-05-07T00:27:48;3.47;;;2.67;;
21239;SDS011;10778;48.962;9.018;2023-05-07T00:30:14;4.22;;;2.83;;
21239;SDS011;10778;48.962;9.018;2023-05-07T00:32:40;4.03;;;3.10;;
21239;SDS011;10778;48.962;9.018;2023-05-07T00:35:06;4.53;;;2.70;;
21239;SDS011;10778;48.962;9.018;2023-05-07T00:37:33;4.43;;;2.90;;
21239;SDS011;10778;48.962;9.018;2023-05-07T00:39:59;4.63;;;2.55;;
21239;SDS011;10778;48.962;9.018;2023-05-07T00:42:25;5.03;;;2.65;;
21239;SDS011;10778;48.962;9.018;2023-05-07T00:44:51;4.63;;;2.83;;
21239;SDS011;10778;48.962;9.018;2023-05-07T00:47:17;6.90;;;2.70;;
21239;SDS011;10778;48.962;9.018;2023-05-07T00:49:44;5.28;;;2.60;;
21239;SDS011;10778;48.962;9.018;2023-05-07T00:52:11;3.70;;;2.60;;
21239;SDS011;10778;48.962;9.018;2023-05-07T00:54:41;6.25;;;2.65;;
21239;SDS011;10778;48.962;9.018;2023-05-07T00:57:07;4.93;;;2.55;;
21239;SDS011;10778;48.962;9.018;2023-05-07T00:59:35;3.40;;;2.80;;
21239;SDS011;10778;48.962;9.018;2023-05-07T01:02:01;4.13;;;2.78;;
21239;SDS011;10778;48.962;9.018;2023-05-07T01:04:27;2.97;;;2.67;;
21239;SDS011;10778;48.962;9.018;2023-05-07T01:06:56;3.47;;;2.80;;
21239;SDS011;10778;48.962;9.018;2023-05-07T01:09:24;2.83;;;2.45;;
21239;SDS011;10778;48.962;9.018;2023-05-07T01:11:51;5.40;;;2.72;;
21239;SDS011;10778;48.962;9.018;2023-05-07T01:14:18;3.42;;;2.70;;
21239;SDS011;10778;48.962;9.018;2023-05-07T01:16:46;5.43;;;2.90;;
21239;SDS011;10778;48.962;9.018;2023-05-07T01:19:14;3.78;;;2.90;;
21239;SDS011;10778;48.962;9.018;2023-05-07T01:21:46;3.85;;;2.85;;
21239;SDS011;10778;48.962;9.018;2023-05-07T01:24:15;4.75;;;3.00;;
21239;SDS011;10778;48.962;9.018;2023-05-07T01:26:42;3.88;;;2.80;;
21239;SDS011;10778;48.962;9.018;2023-05-07T01:29:09;4.35;;;2.85;;
21239;SDS011;10778;48.962;9.018;2023-05-07T01:31:35;4.13;;;2.83;;
21239;SDS011;10778;48.962;9.018;2023-05-07T01:34:02;6.72;;;2.80;;
21239;SDS011;10778;48.962;9.018;2023-05-07T01:36:32;8.30;;;3.20;;
21239;SDS011;10778;48.962;9.018;2023-05-07T01:38:59;3.15;;;2.78;;
21239;SDS011;10778;48.962;9.018;2023-05-07T01:41:26;4.20;;;2.97;;
21239;SDS011;10778;48.962;9.018;2023-05-07T01:43:53;4.53;;;2.67;;
21239;SDS011;10778;48.962;9.018;2023-05-07T01:46:20;3.00;;;2.70;;
21239;SDS011;10778;48.962;9.018;2023-05-07T01:48:47;5.07;;;2.70;;
21239;SDS011;10778;48.962;9.018;2023-05-07T01:51:13;5.72;;;3.28;;
21239;SDS011;10778;48.962;9.018;2023-05-07T01:53:39;3.97;;;2.78;;
21239;SDS011;10778;48.962;9.018;2023-05-07T01:56:06;4.82;;;3.00;;
21239;SDS011;10778;48.962;9.018;2023-05-07T01:58:34;4.25;;;3.10;;
21239;SDS011;10778;48.962;9.018;2023-05-07T02:01:01;4.57;;;3.40;;
21239;SDS011;10778;48.962;9.018;2023-05-07T02:03:27;4.60;;;3.00;;
21239;SDS011;10778;48.962;9.018;2023-05-07T02:06:02;5.10;;;3.13;;
21239;SDS011;10778;48.962;9.018;2023-05-07T02:08:32;4.25;;;3.10;;
21239;SDS011;10778;48.962;9.018;2023-05-07T02:10:59;5.22;;;3.10;;
21239;SDS011;10778;48.962;9.018;2023-05-07T02:13:26;3.65;;;2.90;;
21239;SDS011;10778;48.962;9.018;2023-05-07T02:15:55;4.25;;;3.20;;
21239;SDS011;10778;48.962;9.018;2023-05-07T02:18:23;5.05;;;2.90;;
21239;SDS011;10778;48.962;9.018;2023-05-07T02:20:49;5.43;;;3.10;;
21239;SDS011;10778;48.962;9.018;2023-05-07T02:23:15;4.53;;;2.90;;
21239;SDS011;10778;48.962;9.018;2023-05-07T02:25:41;6.90;;;2.88;;
21239;SDS011;10778;48.962;9.018;2023-05-07T02:28:07;4.15;;;2.70;;
21239;SDS011;10778;48.962;9.018;2023-05-07T02:30:42;5.28;;;2.70;;
21239;SDS011;10778;48.962;9.018;2023-05-07T02:33:08;4.28;;;2.63;;
21239;SDS011;10778;48.962;9.018;2023-05-07T02:35:35;3.85;;;2.97;;
21239;SDS011;10778;48.962;9.018;2023-05-07T02:38:01;3.13;;;2.70;;
21239;SDS011;10778;48.962;9.018;2023-05-07T02:40:27;3.95;;;2.80;;
21239;SDS011;10778;48.962;9.018;2023-05-07T02:42:53;4.10;;;2.50;;
21239;SDS011;10778;48.962;9.018;2023-05-07T02:45:19;3.08;;;2.60;;
21239;SDS011;10778;48.962;9.018;2023-05-07T02:47:46;4.55;;;2.70;;
21239;SDS011;10778;48.962;9.018;2023-05-07T02:50:12;4.07;;;2.70;;
21239;SDS011;10778;48.962;9.018;2023-05-07T02:52:38;5.63;;;2.75;;
21239;SDS011;10778;48.962;9.018;2023-05-07T02:55:05;4.75;;;2.80;;
21239;SDS011;10778;48.962;9.018;2023-05-07T02:57:31;4.10;;;2.53;;
21239;SDS011;10778;48.962;9.018;2023-05-07T02:59:58;5.22;;;2.75;;
21239;SDS011;10778;48.962;9.018;2023-05-07T03:02:24;3.97;;;2.60;;
21239;SDS011;10778;48.962;9.018;2023-05-07T03:04:50;3.55;;;2.47;;
21239;SDS011;10778;48.962;9.018;2023-05-07T03:07:17;5.45;;;2.95;;
21239;SDS011;10778;48.962;9.018;2023-05-07T03:09:43;3.53;;;2.70;;
21239;SDS011;10778;48.962;9.018;2023-05-07T03:12:09;4.47;;;3.03;;
21239;SDS011;10778;48.962;9.018;2023-05-07T03:14:35;3.30;;;2.65;;
21239;SDS011;10778;48.962;9.018;2023-05-07T03:17:01;5.18;;;2.88;;
21239;SDS011;10778;48.962;9.018;2023-05-07T03:19:27;5.93;;;2.70;;
21239;SDS011;10778;48.962;9.018;2023-05-07T03:21:53;4.40;;;3.00;;
21239;SDS011;10778;48.962;9.018;2023-05-07T03:24:20;5.35;;;3.28;;
21239;SDS011;10778;48.962;9.018;2023-05-07T03:26:46;6.28;;;3.80;;
21239;SDS011;10778;48.962;9.018;2023-05-07T03:29:12;5.95;;;3.90;;
21239;SDS011;10778;48.962;9.018;2023-05-07T03:31:38;4.60;;;3.70;;
21239;SDS011;10778;48.962;9.018;2023-05-07T03:34:04;5.30;;;3.67;;
21239;SDS011;10778;48.962;9.018;2023-05-07T03:36:30;5.53;;;3.80;;
21239;SDS011;10778;48.962;9.018;2023-05-07T03:38:56;5.75;;;3.80;;
21239;SDS011;10778;48.962;9.018;2023-05-07T03:41:25;6.78;;;4.18;;
21239;SDS011;10778;48.962;9.018;2023-05-07T03:43:51;5.78;;;3.92;;
21239;SDS011;10778;48.962;9.018;2023-05-07T03:46:18;4.50;;;4.10;;
21239;SDS011;10778;48.962;9.018;2023-05-07T03:48:44;5.20;;;4.22;;
21239;SDS011;10778;48.962;9.018;2023-05-07T03:51:12;7.70;;;3.90;;
21239;SDS011;10778;48.962;9.018;2023-05-07T03:53:38;5.78;;;4.10;;
21239;SDS011;10778;48.962;9.018;2023-05-07T03:56:05;5.90;;;4.15;;
21239;SDS011;10778;48.962;9.018;2023-05-07T03:58:35;5.32;;;4.28;;
21239;SDS011;10778;48.962;9.018;2023-05-07T04:01:05;5.55;;;4.53;;
21239;SDS011;10778;48.962;9.018;2023-05-07T04:03:33;4.32;;;3.85;;
21239;SDS011;10778;48.962;9.018;2023-05-07T04:05:59;6.90;;;4.15;;
21239;SDS011;10778;48.962;9.018;2023-05-07T04:08:26;6.13;;;4.13;;
21239;SDS011;10778;48.962;9.018;2023-05-07T04:10:54;5.75;;;3.90;;
21239;SDS011;10778;48.962;9.018;2023-05-07T04:13:26;7.28;;;4.40;;
21239;SDS011;10778;48.962;9.018;2023-05-07T04:15:54;4.25;;;3.85;;
21239;SDS011;10778;48.962;9.018;2023-05-07T04:18:20;7.35;;;3.80;;
21239;SDS011;10778;48.962;9.018;2023-05-07T04:20:48;5.18;;;3.58;;
21239;SDS011;10778;48.962;9.018;2023-05-07T04:23:17;6.47;;;3.75;;
21239;SDS011;10778;48.962;9.018;2023-05-07T04:25:43;4.75;;;3.83;;
21239;SDS011;10778;48.962;9.018;2023-05-07T04:28:38;6.47;;;3.92;;
21239;SDS011;10778;48.962;9.018;2023-05-07T04:31:05;4.00;;;3.60;;
21239;SDS011;10778;48.962;9.018;2023-05-07T04:33:34;4.88;;;3.95;;
21239;SDS011;10778;48.962;9.018;2023-05-07T04:36:03;4.80;;;3.75;;
21239;SDS011;10778;48.962;9.018;2023-05-07T04:38:33;6.25;;;3.65;;
21239;SDS011;10778;48.962;9.018;2023-05-07T04:41:04;4.97;;;3.50;;
21239;SDS011;10778;48.962;9.018;2023-05-07T04:43:33;7.43;;;3.70;;
21239;SDS011;10778;48.962;9.018;2023-05-07T04:45:59;3.80;;;3.40;;
21239;SDS011;10778;48.962;9.018;2023-05-07T04:48:26;5.55;;;3.60;;
21239;SDS011;10778;48.962;9.018;2023-05-07T04:50:53;6.18;;;3.60;;
21239;SDS011;10778;48.962;9.018;2023-05-07T04:53:20;5.38;;;3.55;;
21239;SDS011;10778;48.962;9.018;2023-05-07T04:55:48;5.20;;;4.10;;
21239;SDS011;10778;48.962;9.018;2023-05-07T04:58:14;6.90;;;4.32;;
21239;SDS011;10778;48.962;9.018;2023-05-07T05:00:42;6.32;;;4.25;;
21239;SDS011;10778;48.962;9.018;2023-05-07T05:03:09;6.20;;;4.32;;
21239;SDS011;10778;48.962;9.018;2023-05-07T05:05:37;6.18;;;4.28;;
21239;SDS011;10778;48.962;9.018;2023-05-07T05:08:03;7.13;;;4.07;;
21239;SDS011;10778;48.962;9.018;2023-05-07T05:10:30;6.97;;;4.47;;
21239;SDS011;10778;48.962;9.018;2023-05-07T05:12:56;5.25;;;4.50;;
21239;SDS011;10778;48.962;9.018;2023-05-07T05:15:23;5.93;;;4.30;;
21239;SDS011;10778;48.962;9.018;2023-05-07T05:17:50;5.43;;;4.47;;
21239;SDS011;10778;48.962;9.018;2023-05-07T05:20:16;4.80;;;4.00;;
21239;SDS011;10778;48.962;9.018;2023-05-07T05:22:42;6.35;;;4.65;;
21239;SDS011;10778;48.962;9.018;2023-05-07T05:25:09;8.38;;;5.93;;
21239;SDS011;10778;48.962;9.018;2023-05-07T05:27:35;9.20;;;6.80;;
21239;SDS011;10778;48.962;9.018;2023-05-07T05:30:02;11.77;;;8.60;;
21239;SDS011;10778;48.962;9.018;2023-05-07T05:32:30;15.77;;;10.40;;
21239;SDS011;10778;48.962;9.018;2023-05-07T05:34:56;20.88;;;12.68;;
21239;SDS011;10778;48.962;9.018;2023-05-07T05:37:22;16.63;;;11.60;;
21239;SDS011;10778;48.962;9.018;2023-05-07T05:39:50;19.90;;;13.13;;
21239;SDS011;10778;48.962;9.018;2023-05-07T05:42:16;21.65;;;14.57;;
21239;SDS011;10778;48.962;9.018;2023-05-07T05:44:42;24.08;;;14.80;;
21239;SDS011;10778;48.962;9.018;2023-05-07T05:47:08;20.13;;;14.27;;
21239;SDS011;10778;48.962;9.018;2023-05-07T05:49:34;16.67;;;11.73;;
21239;SDS011;10778;48.962;9.018;2023-05-07T05:52:03;16.20;;;11.02;;
21239;SDS011;10778;48.962;9.018;2023-05-07T05:54:29;14.60;;;8.40;;
21239;SDS011;10778;48.962;9.018;2023-05-07T05:56:55;10.48;;;7.50;;
21239;SDS011;10778;48.962;9.018;2023-05-07T05:59:23;8.38;;;6.47;;
21239;SDS011;10778;48.962;9.018;2023-05-07T06:01:49;10.00;;;6.32;;
21239;SDS011;10778;48.962;9.018;2023-05-07T06:04:15;8.25;;;6.13;;
21239;SDS011;10778;48.962;9.018;2023-05-07T06:06:42;8.10;;;5.57;;
21239;SDS011;10778;48.962;9.018;2023-05-07T06:09:08;9.10;;;5.82;;
21239;SDS011;10778;48.962;9.018;2023-05-07T06:11:39;8.38;;;5.47;;
21239;SDS011;10778;48.962;9.018;2023-05-07T06:14:07;6.25;;;5.28;;
21239;SDS011;10778;48.962;9.018;2023-05-07T06:16:33;7.22;;;5.00;;
21239;SDS011;10778;48.962;9.018;2023-05-07T06:19:00;6.82;;;4.50;;
21239;SDS011;10778;48.962;9.018;2023-05-07T06:21:26;7.22;;;4.50;;
21239;SDS011;10778;48.962;9.018;2023-05-07T06:23:52;7.72;;;4.50;;
21239;SDS011;10778;48.962;9.018;2023-05-07T06:26:18;6.07;;;4.45;;
21239;SDS011;10778;48.962;9.018;2023-05-07T06:28:47;5.55;;;3.72;;
21239;SDS011;10778;48.962;9.018;2023-05-07T06:31:15;4.10;;;3.70;;
21239;SDS011;10778;48.962;9.018;2023-05-07T06:33:47;3.88;;;3.58;;
21239;SDS011;10778;48.962;9.018;2023-05-07T06:36:14;4.47;;;3.70;;
21239;SDS011;10778;48.962;9.018;2023-05-07T06:38:41;5.30;;;3.45;;
21239;SDS011;10778;48.962;9.018;2023-05-07T06:41:07;4.63;;;3.78;;
21239;SDS011;10778;48.962;9.018;2023-05-07T06:43:33;4.55;;;3.63;;
21239;SDS011;10778;48.962;9.018;2023-05-07T06:46:18;5.80;;;3.92;;
21239;SDS011;10778;48.962;9.018;2023-05-07T06:48:44;6.63;;;3.90;;
21239;SDS011;10778;48.962;9.018;2023-05-07T06:51:10;5.03;;;3.50;;
21239;SDS011;10778;48.962;9.018;2023-05-07T06:53:36;6.13;;;3.83;;
21239;SDS011;10778;48.962;9.018;2023-05-07T06:56:03;3.80;;;3.40;;
21239;SDS011;10778;48.962;9.018;2023-05-07T06:58:30;4.80;;;3.70;;
21239;SDS011;10778;48.962;9.018;2023-05-07T07:00:56;4.15;;;3.08;;
21239;SDS011;10778;48.962;9.018;2023-05-07T07:03:23;5.22;;;2.63;;
21239;SDS011;10778;48.962;9.018;2023-05-07T07:05:53;4.38;;;3.22;;
21239;SDS011;10778;48.962;9.018;2023-05-07T07:08:21;3.80;;;3.25;;
21239;SDS011;10778;48.962;9.018;2023-05-07T07:10:48;5.13;;;3.20;;
21239;SDS011;10778;48.962;9.018;2023-05-07T07:13:14;3.75;;;2.70;;
21239;SDS011;10778;48.962;9.018;2023-05-07T07:15:41;5.78;;;2.97;;
21239;SDS011;10778;48.962;9.018;2023-05-07T07:18:08;6.15;;;3.20;;
21239;SDS011;10778;48.962;9.018;2023-05-07T07:20:34;3.65;;;3.33;;
21239;SDS011;10778;48.962;9.018;2023-05-07T07:23:00;3.72;;;3.13;;
21239;SDS011;10778;48.962;9.018;2023-05-07T07:25:26;3.47;;;2.72;;
21239;SDS011;10778;48.962;9.018;2023-05-07T07:27:52;4.13;;;3.03;;
21239;SDS011;10778;48.962;9.018;2023-05-07T07:30:20;4.30;;;3.00;;
21239;SDS011;10778;48.962;9.018;2023-05-07T07:32:48;5.43;;;2.88;;
21239;SDS011;10778;48.962;9.018;2023-05-07T07:35:15;3.45;;;2.83;;
21239;SDS011;10778;48.962;9.018;2023-05-07T07:37:42;3.08;;;2.33;;
21239;SDS011;10778;48.962;9.018;2023-05-07T07:40:08;3.60;;;2.65;;
21239;SDS011;10778;48.962;9.018;2023-05-07T07:42:36;4.35;;;2.80;;
21239;SDS011;10778;48.962;9.018;2023-05-07T07:45:02;3.10;;;2.80;;
21239;SDS011;10778;48.962;9.018;2023-05-07T07:47:32;4.45;;;2.85;;
21239;SDS011;10778;48.962;9.018;2023-05-07T07:49:58;4.40;;;2.90;;
21239;SDS011;10778;48.962;9.018;2023-05-07T07:52:25;2.78;;;2.35;;
21239;SDS011;10778;48.962;9.018;2023-05-07T07:54:51;3.35;;;2.80;;
21239;SDS011;10778;48.962;9.018;2023-05-07T07:57:17;3.15;;;2.53;;
21239;SDS011;10778;48.962;9.018;2023-05-07T07:59:43;4.28;;;2.97;;
21239;SDS011;10778;48.962;9.018;2023-05-07T08:02:11;4.22;;;3.15;;
21239;SDS011;10778;48.962;9.018;2023-05-07T08:04:38;3.13;;;2.83;;
21239;SDS011;10778;48.962;9.018;2023-05-07T08:07:06;5.95;;;2.70;;
21239;SDS011;10778;48.962;9.018;2023-05-07T08:09:36;4.35;;;2.90;;
21239;SDS011;10778;48.962;9.018;2023-05-07T08:12:04;4.78;;;2.80;;
21239;SDS011;10778;48.962;9.018;2023-05-07T08:14:33;5.78;;;3.15;;
21239;SDS011;10778;48.962;9.018;2023-05-07T08:16:59;3.00;;;2.70;;
21239;SDS011;10778;48.962;9.018;2023-05-07T08:19:26;3.08;;;2.78;;
21239;SDS011;10778;48.962;9.018;2023-05-07T08:21:52;6.97;;;2.83;;
21239;SDS011;10778;48.962;9.018;2023-05-07T08:24:19;4.50;;;2.50;;
21239;SDS011;10778;48.962;9.018;2023-05-07T08:26:46;4.90;;;2.80;;
21239;SDS011;10778;48.962;9.018;2023-05-07T08:29:12;4.78;;;2.85;;
21239;SDS011;10778;48.962;9.018;2023-05-07T08:31:38;4.70;;;3.00;;
21239;SDS011;10778;48.962;9.018;2023-05-07T08:34:05;3.05;;;2.67;;
21239;SDS011;10778;48.962;9.018;2023-05-07T08:36:33;3.70;;;2.28;;
21239;SDS011;10778;48.962;9.018;2023-05-07T08:38:59;3.78;;;2.40;;
21239;SDS011;10778;48.962;9.018;2023-05-07T08:41:25;5.05;;;2.72;;
21239;SDS011;10778;48.962;9.018;2023-05-07T08:43:51;4.07;;;2.80;;
21239;SDS011;10778;48.962;9.018;2023-05-07T08:46:18;5.55;;;2.95;;
21239;SDS011;10778;48.962;9.018;2023-05-07T08:48:49;3.20;;;2.90;;
21239;SDS011;10778;48.962;9.018;2023-05-07T08:51:17;3.38;;;2.78;;
21239;SDS011;10778;48.962;9.018;2023-05-07T08:53:46;3.35;;;2.63;;
21239;SDS011;10778;48.962;9.018;2023-05-07T08:56:22;4.38;;;2.70;;
21239;SDS011;10778;48.962;9.018;2023-05-07T08:58:50;5.10;;;2.75;;
21239;SDS011;10778;48.962;9.018;2023-05-07T09:01:17;4.10;;;2.90;;
21239;SDS011;10778;48.962;9.018;2023-05-07T09:03:46;4.47;;;2.88;;
21239;SDS011;10778;48.962;9.018;2023-05-07T09:06:14;4.72;;;2.55;;
21239;SDS011;10778;48.962;9.018;2023-05-07T09:08:41;3.65;;;2.78;;
21239;SDS011;10778;48.962;9.018;2023-05-07T09:11:14;4.47;;;2.95;;
21239;SDS011;10778;48.962;9.018;2023-05-07T09:13:41;2.85;;;2.55;;
21239;SDS011;10778;48.962;9.018;2023-05-07T09:16:12;5.22;;;2.60;;
21239;SDS011;10778;48.962;9.018;2023-05-07T09:18:43;3.67;;;2.70;;
21239;SDS011;10778;48.962;9.018;2023-05-07T09:21:16;3.40;;;2.90;;
21239;SDS011;10778;48.962;9.018;2023-05-07T09:23:44;4.25;;;2.72;;
21239;SDS011;10778;48.962;9.018;2023-05-07T09:26:11;4.47;;;2.58;;
21239;SDS011;10778;48.962;9.018;2023-05-07T09:28:41;4.65;;;2.50;;
21239;SDS011;10778;48.962;9.018;2023-05-07T09:31:10;3.85;;;2.80;;
21239;SDS011;10778;48.962;9.018;2023-05-07T09:33:37;6.38;;;2.83;;
21239;SDS011;10778;48.962;9.018;2023-05-07T09:36:05;6.20;;;2.70;;
21239;SDS011;10778;48.962;9.018;2023-05-07T09:38:33;5.40;;;2.83;;
21239;SDS011;10778;48.962;9.018;2023-05-07T09:41:11;5.03;;;2.90;;
21239;SDS011;10778;48.962;9.018;2023-05-07T09:43:54;2.95;;;2.42;;
21239;SDS011;10778;48.962;9.018;2023-05-07T09:46:25;4.10;;;2.65;;
21239;SDS011;10778;48.962;9.018;2023-05-07T09:48:57;4.63;;;3.00;;
21239;SDS011;10778;48.962;9.018;2023-05-07T09:51:29;3.95;;;3.05;;
21239;SDS011;10778;48.962;9.018;2023-05-07T09:53:59;6.22;;;3.33;;
21239;SDS011;10778;48.962;9.018;2023-05-07T09:56:29;5.35;;;3.17;;
21239;SDS011;10778;48.962;9.018;2023-05-07T09:58:57;5.60;;;3.03;;
21239;SDS011;10778;48.962;9.018;2023-05-07T10:01:26;4.05;;;2.97;;
21239;SDS011;10778;48.962;9.018;2023-05-07T10:03:54;3.33;;;2.60;;
21239;SDS011;10778;48.962;9.018;2023-05-07T10:06:21;3.35;;;2.90;;
21239;SDS011;10778;48.962;9.018;2023-05-07T10:08:51;3.33;;;2.60;;
21239;SDS011;10778;48.962;9.018;2023-05-07T10:11:18;4.22;;;2.75;;
21239;SDS011;10778;48.962;9.018;2023-05-07T10:13:46;3.50;;;2.47;;
21239;SDS011;10778;48.962;9.018;2023-05-07T10:16:12;3.80;;;2.70;;
21239;SDS011;10778;48.962;9.018;2023-05-07T10:18:43;4.90;;;2.95;;
21239;SDS011;10778;48.962;9.018;2023-05-07T10:21:22;5.03;;;2.55;;
21239;SDS011;10778;48.962;9.018;2023-05-07T10:26:27;5.22;;;2.70;;
21239;SDS011;10778;48.962;9.018;2023-05-07T10:28:59;3.90;;;2.63;;
21239;SDS011;10778;48.962;9.018;2023-05-07T10:31:43;3.88;;;2.20;;
21239;SDS011;10778;48.962;9.018;2023-05-07T10:34:23;4.45;;;2.70;;
21239;SDS011;10778;48.962;9.018;2023-05-07T10:36:54;3.80;;;2.17;;
21239;SDS011;10778;48.962;9.018;2023-05-07T10:39:24;3.40;;;2.30;;
21239;SDS011;10778;48.962;9.018;2023-05-07T10:41:51;3.67;;;2.47;;
21239;SDS011;10778;48.962;9.018;2023-05-07T10:44:27;2.40;;;2.05;;
21239;SDS011;10778;48.962;9.018;2023-05-07T10:47:15;2.78;;;2.15;;
21239;SDS011;10778;48.962;9.018;2023-05-07T10:52:22;4.15;;;2.38;;
21239;SDS011;10778;48.962;9.018;2023-05-07T10:57:41;3.70;;;2.50;;
21239;SDS011;10778;48.962;9.018;2023-05-07T11:05:38;3.90;;;2.30;;
21239;SDS011;10778;48.962;9.018;2023-05-07T11:08:22;2.13;;;1.95;;
21239;SDS011;10778;48.962;9.018;2023-05-07T11:10:57;3.22;;;2.40;;
21239;SDS011;10778;48.962;9.018;2023-05-07T11:13:48;4.63;;;2.10;;
21239;SDS011;10778;48.962;9.018;2023-05-07T11:16:27;4.30;;;2.50;;
21239;SDS011;10778;48.962;9.018;2023-05-07T11:19:07;3.72;;;2.10;;
21239;SDS011;10778;48.962;9.018;2023-05-07T11:21:40;4.97;;;2.60;;
21239;SDS011;10778;48.962;9.018;2023-05-07T11:24:38;3.63;;;2.13;;
21239;SDS011;10778;48.962;9.018;2023-05-07T11:27:06;2.65;;;2.15;;
21239;SDS011;10778;48.962;9.018;2023-05-07T11:29:32;3.15;;;2.05;;
21239;SDS011;10778;48.962;9.018;2023-05-07T11:32:05;3.50;;;2.78;;
21239;SDS011;10778;48.962;9.018;2023-05-07T11:34:44;4.38;;;2.38;;
21239;SDS011;10778;48.962;9.018;2023-05-07T11:37:16;4.65;;;2.25;;
21239;SDS011;10778;48.962;9.018;2023-05-07T11:39:50;3.45;;;2.50;;
21239;SDS011;10778;48.962;9.018;2023-05-07T11:42:31;3.58;;;2.20;;
21239;SDS011;10778;48.962;9.018;2023-05-07T11:45:03;2.10;;;1.90;;
21239;SDS011;10778;48.962;9.018;2023-05-07T11:47:31;3.63;;;2.13;;
21239;SDS011;10778;48.962;9.018;2023-05-07T11:49:57;4.30;;;2.03;;
21239;SDS011;10778;48.962;9.018;2023-05-07T11:52:29;3.65;;;2.10;;
21239;SDS011;10778;48.962;9.018;2023-05-07T11:54:55;3.83;;;2.30;;
21239;SDS011;10778;48.962;9.018;2023-05-07T11:57:23;2.70;;;2.17;;
21239;SDS011;10778;48.962;9.018;2023-05-07T11:59:53;4.20;;;1.98;;
21239;SDS011;10778;48.962;9.018;2023-05-07T12:02:23;3.95;;;1.85;;
21239;SDS011;10778;48.962;9.018;2023-05-07T12:04:50;3.97;;;2.10;;
21239;SDS011;10778;48.962;9.018;2023-05-07T12:07:20;3.30;;;2.10;;
21239;SDS011;10778;48.962;9.018;2023-05-07T12:09:46;4.97;;;1.95;;
21239;SDS011;10778;48.962;9.018;2023-05-07T12:12:13;3.70;;;2.00;;
21239;SDS011;10778;48.962;9.018;2023-05-07T12:14:43;2.55;;;1.95;;
21239;SDS011;10778;48.962;9.018;2023-05-07T12:17:10;2.63;;;1.90;;
21239;SDS011;10778;48.962;9.018;2023-05-07T12:19:38;3.58;;;1.90;;
21239;SDS011;10778;48.962;9.018;2023-05-07T12:22:05;3.25;;;1.60;;
21239;SDS011;10778;48.962;9.018;2023-05-07T12:24:47;6.40;;;1.95;;
21239;SDS011;10778;48.962;9.018;2023-05-07T12:27:14;2.55;;;1.77;;
21239;SDS011;10778;48.962;9.018;2023-05-07T12:29:48;4.45;;;1.80;;
21239;SDS011;10778;48.962;9.018;2023-05-07T12:32:19;3.33;;;1.90;;
21239;SDS011;10778;48.962;9.018;2023-05-07T12:34:46;2.88;;;2.00;;
21239;SDS011;10778;48.962;9.018;2023-05-07T12:37:15;3.90;;;2.03;;
21239;SDS011;10778;48.962;9.018;2023-05-07T12:39:48;3.80;;;2.15;;
21239;SDS011;10778;48.962;9.018;2023-05-07T12:42:21;4.38;;;1.90;;
21239;SDS011;10778;48.962;9.018;2023-05-07T12:44:51;2.63;;;1.88;;
21239;SDS011;10778;48.962;9.018;2023-05-07T12:47:17;4.63;;;1.77;;
21239;SDS011;10778;48.962;9.018;2023-05-07T12:49:43;2.97;;;1.88;;
21239;SDS011;10778;48.962;9.018;2023-05-07T12:52:11;4.30;;;1.90;;
21239;SDS011;10778;48.962;9.018;2023-05-07T12:54:37;2.13;;;1.60;;
21239;SDS011;10778;48.962;9.018;2023-05-07T12:57:05;2.60;;;1.80;;
21239;SDS011;10778;48.962;9.018;2023-05-07T12:59:35;2.25;;;1.60;;
21239;SDS011;10778;48.962;9.018;2023-05-07T13:02:02;2.95;;;1.70;;
21239;SDS011;10778;48.962;9.018;2023-05-07T13:04:29;3.97;;;1.80;;
21239;SDS011;10778;48.962;9.018;2023-05-07T13:06:55;2.50;;;1.70;;
21239;SDS011;10778;48.962;9.018;2023-05-07T13:09:21;5.07;;;1.98;;
21239;SDS011;10778;48.962;9.018;2023-05-07T13:11:47;2.30;;;1.77;;
21239;SDS011;10778;48.962;9.018;2023-05-07T13:14:13;3.08;;;2.00;;
21239;SDS011;10778;48.962;9.018;2023-05-07T13:16:39;2.63;;;2.20;;
21239;SDS011;10778;48.962;9.018;2023-05-07T13:19:05;3.50;;;2.00;;
21239;SDS011;10778;48.962;9.018;2023-05-07T13:21:31;3.13;;;2.10;;
21239;SDS011;10778;48.962;9.018;2023-05-07T13:23:59;4.20;;;2.30;;
21239;SDS011;10778;48.962;9.018;2023-05-07T13:26:25;4.53;;;2.47;;
21239;SDS011;10778;48.962;9.018;2023-05-07T13:28:52;4.10;;;2.08;;
21239;SDS011;10778;48.962;9.018;2023-05-07T13:31:19;3.30;;;1.80;;
21239;SDS011;10778;48.962;9.018;2023-05-07T13:33:46;3.90;;;1.88;;
21239;SDS011;10778;48.962;9.018;2023-05-07T13:36:12;3.25;;;1.60;;
21239;SDS011;10778;48.962;9.018;2023-05-07T13:38:39;4.38;;;1.65;;
21239;SDS011;10778;48.962;9.018;2023-05-07T13:41:05;3.10;;;2.10;;
21239;SDS011;10778;48.962;9.018;2023-05-07T13:43:33;3.35;;;2.10;;
21239;SDS011;10778;48.962;9.018;2023-05-07T13:45:59;3.17;;;2.00;;
21239;SDS011;10778;48.962;9.018;2023-05-07T13:48:26;2.47;;;1.83;;
21239;SDS011;10778;48.962;9.018;2023-05-07T13:50:52;3.72;;;1.70;;
21239;SDS011;10778;48.962;9.018;2023-05-07T13:53:18;5.57;;;1.85;;
21239;SDS011;10778;48.962;9.018;2023-05-07T13:55:44;2.72;;;1.58;;
21239;SDS011;10778;48.962;9.018;2023-05-07T13:58:10;6.75;;;1.95;;
21239;SDS011;10778;48.962;9.018;2023-05-07T14:00:36;4.03;;;1.73;;
21239;SDS011;10778;48.962;9.018;2023-05-07T14:03:03;3.65;;;1.50;;
21239;SDS011;10778;48.962;9.018;2023-05-07T14:05:30;4.72;;;1.60;;
21239;SDS011;10778;48.962;9.018;2023-05-07T14:07:57;3.67;;;1.60;;
21239;SDS011;10778;48.962;9.018;2023-05-07T14:10:23;2.83;;;1.95;;
21239;SDS011;10778;48.962;9.018;2023-05-07T14:12:50;6.45;;;2.22;;
21239;SDS011;10778;48.962;9.018;2023-05-07T14:15:16;4.40;;;2.75;;
21239;SDS011;10778;48.962;9.018;2023-05-07T14:17:42;7.15;;;3.00;;
21239;SDS011;10778;48.962;9.018;2023-05-07T14:20:09;8.88;;;2.95;;
21239;SDS011;10778;48.962;9.018;2023-05-07T14:22:36;7.85;;;3.10;;
21239;SDS011;10778;48.962;9.018;2023-05-07T14:25:02;7.25;;;2.63;;
21239;SDS011;10778;48.962;9.018;2023-05-07T14:27:28;7.63;;;3.00;;
21239;SDS011;10778;48.962;9.018;2023-05-07T14:29:54;6.70;;;2.78;;
21239;SDS011;10778;48.962;9.018;2023-05-07T14:32:20;5.75;;;2.78;;
21239;SDS011;10778;48.962;9.018;2023-05-07T14:34:47;4.53;;;2.53;;
21239;SDS011;10778;48.962;9.018;2023-05-07T14:37:13;7.20;;;2.65;;
21239;SDS011;10778;48.962;9.018;2023-05-07T14:39:39;6.28;;;2.95;;
21239;SDS011;10778;48.962;9.018;2023-05-07T14:42:05;5.93;;;2.70;;
21239;SDS011;10778;48.962;9.018;2023-05-07T14:44:36;6.95;;;2.92;;
21239;SDS011;10778;48.962;9.018;2023-05-07T14:47:02;4.60;;;2.60;;
21239;SDS011;10778;48.962;9.018;2023-05-07T14:49:28;6.57;;;2.60;;
21239;SDS011;10778;48.962;9.018;2023-05-07T14:51:56;5.20;;;2.75;;
21239;SDS011;10778;48.962;9.018;2023-05-07T14:54:23;4.32;;;2.70;;
21239;SDS011;10778;48.962;9.018;2023-05-07T14:56:49;9.13;;;3.03;;
21239;SDS011;10778;48.962;9.018;2023-05-07T14:59:16;4.88;;;2.70;;
21239;SDS011;10778;48.962;9.018;2023-05-07T15:01:45;5.50;;;2.88;;
21239;SDS011;10778;48.962;9.018;2023-05-07T15:04:11;6.10;;;3.28;;
21239;SDS011;10778;48.962;9.018;2023-05-07T15:06:37;3.85;;;2.70;;